sensor_id;sensor_type;location;lat;lon;timestamp;P1;durP1;ratioP1;P2;durP2;ratioP2
72684;SDS011;61365;52.162;4.500;2023-03-01T00:01:17;24.20;;;12.05;;
72684;SDS011;61365;52.162;4.500;2023-03-01T00:03:47;22.42;;;12.95;;
72684;SDS011;61365;52.162;4.500;2023-03-01T00:06:14;19.83;;;11.98;;
72684;SDS011;61365;52.162;4.500;2023-03-01T00:08:40;21.65;;;11.98;;
72684;SDS011;61365;52.162;4.500;2023-03-01T00:11:14;24.13;;;13.65;;
72684;SDS011;61365;52.162;4.500;2023-03-01T00:13:47;23.25;;;13.27;;
72684;SDS011;61365;52.162;4.500;2023-03-01T00:16:18;19.88;;;12.07;;
72684;SDS011;61365;52.162;4.500;2023-03-01T00:18:55;18.38;;;12.57;;
72684;SDS011;61365;52.162;4.500;2023-03-01T00:21:23;24.30;;;13.43;;
72684;SDS011;61365;52.162;4.500;2023-03-01T00:23:51;24.52;;;13.35;;
72684;SDS011;61365;52.162;4.500;2023-03-01T00:26:19;25.58;;;14.20;;
72684;SDS011;61365;52.162;4.500;2023-03-01T00:28:48;24.85;;;14.68;;
72684;SDS011;61365;52.162;4.500;2023-03-01T00:31:16;28.33;;;15.68;;
72684;SDS011;61365;52.162;4.500;2023-03-01T00:33:46;33.55;;;16.02;;
72684;SDS011;61365;52.162;4.500;2023-03-01T00:36:14;25.98;;;14.80;;
72684;SDS011;61365;52.162;4.500;2023-03-01T00:38:43;27.00;;;14.98;;
72684;SDS011;61365;52.162;4.500;2023-03-01T00:41:12;34.00;;;15.32;;
72684;SDS011;61365;52.162;4.500;2023-03-01T00:43:43;27.52;;;15.73;;
72684;SDS011;61365;52.162;4.500;2023-03-01T00:46:15;28.42;;;15.77;;
72684;SDS011;61365;52.162;4.500;2023-03-01T00:48:45;25.83;;;15.52;;
72684;SDS011;61365;52.162;4.500;2023-03-01T00:51:16;28.20;;;16.83;;
72684;SDS011;61365;52.162;4.500;2023-03-01T00:53:46;27.20;;;16.50;;
72684;SDS011;61365;52.162;4.500;2023-03-01T00:56:16;31.92;;;16.58;;
72684;SDS011;61365;52.162;4.500;2023-03-01T00:58:43;29.80;;;16.92;;
72684;SDS011;61365;52.162;4.500;2023-03-01T01:01:10;38.20;;;18.25;;
72684;SDS011;61365;52.162;4.500;2023-03-01T01:04:06;32.90;;;18.48;;
72684;SDS011;61365;52.162;4.500;2023-03-01T01:06:36;32.63;;;17.20;;
72684;SDS011;61365;52.162;4.500;2023-03-01T01:09:09;34.60;;;17.95;;
72684;SDS011;61365;52.162;4.500;2023-03-01T01:11:44;34.08;;;19.05;;
72684;SDS011;61365;52.162;4.500;2023-03-01T01:14:16;33.97;;;18.70;;
72684;SDS011;61365;52.162;4.500;2023-03-01T01:16:44;33.65;;;18.40;;
72684;SDS011;61365;52.162;4.500;2023-03-01T01:19:11;35.35;;;19.00;;
72684;SDS011;61365;52.162;4.500;2023-03-01T01:21:39;36.25;;;19.90;;
72684;SDS011;61365;52.162;4.500;2023-03-01T01:24:09;36.05;;;20.25;;
72684;SDS011;61365;52.162;4.500;2023-03-01T01:26:36;34.72;;;19.83;;
72684;SDS011;61365;52.162;4.500;2023-03-01T01:29:03;48.17;;;21.30;;
72684;SDS011;61365;52.162;4.500;2023-03-01T01:31:31;39.00;;;21.40;;
72684;SDS011;61365;52.162;4.500;2023-03-01T01:34:00;45.38;;;22.83;;
72684;SDS011;61365;52.162;4.500;2023-03-01T01:36:30;37.80;;;20.77;;
72684;SDS011;61365;52.162;4.500;2023-03-01T01:38:57;39.25;;;20.85;;
72684;SDS011;61365;52.162;4.500;2023-03-01T01:41:24;40.63;;;21.17;;
72684;SDS011;61365;52.162;4.500;2023-03-01T01:44:11;41.63;;;22.15;;
72684;SDS011;61365;52.162;4.500;2023-03-01T01:52:08;36.00;;;19.73;;
72684;SDS011;61365;52.162;4.500;2023-03-01T01:54:53;37.85;;;20.73;;
72684;SDS011;61365;52.162;4.500;2023-03-01T01:57:36;47.53;;;22.08;;
72684;SDS011;61365;52.162;4.500;2023-03-01T02:00:11;41.67;;;20.65;;
72684;SDS011;61365;52.162;4.500;2023-03-01T02:02:41;38.42;;;20.13;;
72684;SDS011;61365;52.162;4.500;2023-03-01T02:05:33;38.40;;;20.75;;
72684;SDS011;61365;52.162;4.500;2023-03-01T02:08:20;45.75;;;22.88;;
72684;SDS011;61365;52.162;4.500;2023-03-01T02:10:51;44.35;;;22.30;;
72684;SDS011;61365;52.162;4.500;2023-03-01T02:13:20;44.47;;;22.10;;
72684;SDS011;61365;52.162;4.500;2023-03-01T02:15:46;45.63;;;22.55;;
72684;SDS011;61365;52.162;4.500;2023-03-01T02:18:14;48.22;;;23.88;;
72684;SDS011;61365;52.162;4.500;2023-03-01T02:23:43;45.33;;;21.98;;
72684;SDS011;61365;52.162;4.500;2023-03-01T02:29:00;49.60;;;25.08;;
72684;SDS011;61365;52.162;4.500;2023-03-01T02:31:31;53.00;;;25.85;;
72684;SDS011;61365;52.162;4.500;2023-03-01T02:34:08;47.72;;;25.05;;
72684;SDS011;61365;52.162;4.500;2023-03-01T02:36:44;50.05;;;25.73;;
72684;SDS011;61365;52.162;4.500;2023-03-01T02:39:24;56.90;;;25.95;;
72684;SDS011;61365;52.162;4.500;2023-03-01T02:42:00;50.38;;;24.48;;
72684;SDS011;61365;52.162;4.500;2023-03-01T02:44:29;52.15;;;26.33;;
72684;SDS011;61365;52.162;4.500;2023-03-01T02:46:56;58.92;;;26.58;;
72684;SDS011;61365;52.162;4.500;2023-03-01T02:49:30;45.17;;;24.08;;
72684;SDS011;61365;52.162;4.500;2023-03-01T02:55:16;50.73;;;24.97;;
72684;SDS011;61365;52.162;4.500;2023-03-01T02:57:44;49.50;;;24.92;;
72684;SDS011;61365;52.162;4.500;2023-03-01T03:00:23;51.50;;;27.45;;
72684;SDS011;61365;52.162;4.500;2023-03-01T03:03:00;50.65;;;27.10;;
72684;SDS011;61365;52.162;4.500;2023-03-01T03:05:28;55.83;;;26.23;;
72684;SDS011;61365;52.162;4.500;2023-03-01T03:07:57;48.85;;;24.95;;
72684;SDS011;61365;52.162;4.500;2023-03-01T03:10:27;51.90;;;27.05;;
72684;SDS011;61365;52.162;4.500;2023-03-01T03:13:01;49.95;;;25.15;;
72684;SDS011;61365;52.162;4.500;2023-03-01T03:15:33;57.03;;;27.60;;
72684;SDS011;61365;52.162;4.500;2023-03-01T03:18:05;43.83;;;23.75;;
72684;SDS011;61365;52.162;4.500;2023-03-01T03:20:36;51.72;;;25.75;;
72684;SDS011;61365;52.162;4.500;2023-03-01T03:23:05;51.38;;;26.05;;
72684;SDS011;61365;52.162;4.500;2023-03-01T03:25:31;52.63;;;26.85;;
72684;SDS011;61365;52.162;4.500;2023-03-01T03:27:58;58.05;;;28.15;;
72684;SDS011;61365;52.162;4.500;2023-03-01T03:30:26;56.08;;;29.20;;
72684;SDS011;61365;52.162;4.500;2023-03-01T03:32:55;59.47;;;28.60;;
72684;SDS011;61365;52.162;4.500;2023-03-01T03:35:30;54.03;;;26.30;;
72684;SDS011;61365;52.162;4.500;2023-03-01T03:38:05;55.33;;;27.52;;
72684;SDS011;61365;52.162;4.500;2023-03-01T03:40:45;61.05;;;29.00;;
72684;SDS011;61365;52.162;4.500;2023-03-01T03:43:18;52.88;;;26.95;;
72684;SDS011;61365;52.162;4.500;2023-03-01T03:45:48;58.25;;;28.08;;
72684;SDS011;61365;52.162;4.500;2023-03-01T03:48:17;53.17;;;26.77;;
72684;SDS011;61365;52.162;4.500;2023-03-01T03:50:49;56.00;;;27.95;;
72684;SDS011;61365;52.162;4.500;2023-03-01T03:53:19;58.97;;;29.08;;
72684;SDS011;61365;52.162;4.500;2023-03-01T03:55:48;58.63;;;27.88;;
72684;SDS011;61365;52.162;4.500;2023-03-01T03:58:20;57.88;;;28.75;;
72684;SDS011;61365;52.162;4.500;2023-03-01T04:00:49;53.92;;;28.00;;
72684;SDS011;61365;52.162;4.500;2023-03-01T04:03:23;51.95;;;28.02;;
72684;SDS011;61365;52.162;4.500;2023-03-01T04:05:51;60.78;;;29.38;;
72684;SDS011;61365;52.162;4.500;2023-03-01T04:08:19;46.55;;;24.75;;
72684;SDS011;61365;52.162;4.500;2023-03-01T04:10:49;51.05;;;26.02;;
72684;SDS011;61365;52.162;4.500;2023-03-01T04:13:21;50.97;;;24.45;;
72684;SDS011;61365;52.162;4.500;2023-03-01T04:15:51;55.38;;;27.10;;
72684;SDS011;61365;52.162;4.500;2023-03-01T04:18:20;49.88;;;25.17;;
72684;SDS011;61365;52.162;4.500;2023-03-01T04:20:49;57.67;;;26.80;;
72684;SDS011;61365;52.162;4.500;2023-03-01T04:23:20;61.63;;;27.90;;
72684;SDS011;61365;52.162;4.500;2023-03-01T04:25:54;54.05;;;25.92;;
72684;SDS011;61365;52.162;4.500;2023-03-01T04:28:25;56.17;;;26.77;;
72684;SDS011;61365;52.162;4.500;2023-03-01T04:31:05;52.30;;;25.02;;
72684;SDS011;61365;52.162;4.500;2023-03-01T04:33:51;60.88;;;26.27;;
72684;SDS011;61365;52.162;4.500;2023-03-01T04:36:21;62.33;;;27.38;;
72684;SDS011;61365;52.162;4.500;2023-03-01T04:38:51;57.97;;;28.30;;
72684;SDS011;61365;52.162;4.500;2023-03-01T04:41:18;60.40;;;29.30;;
72684;SDS011;61365;52.162;4.500;2023-03-01T04:43:47;55.03;;;26.95;;
72684;SDS011;61365;52.162;4.500;2023-03-01T04:46:16;58.25;;;27.92;;
72684;SDS011;61365;52.162;4.500;2023-03-01T04:48:45;58.85;;;28.90;;
72684;SDS011;61365;52.162;4.500;2023-03-01T04:51:13;55.25;;;27.92;;
72684;SDS011;61365;52.162;4.500;2023-03-01T04:53:40;49.90;;;25.85;;
72684;SDS011;61365;52.162;4.500;2023-03-01T04:56:08;53.50;;;25.88;;
72684;SDS011;61365;52.162;4.500;2023-03-01T04:58:35;53.90;;;28.10;;
72684;SDS011;61365;52.162;4.500;2023-03-01T05:01:07;60.35;;;26.45;;
72684;SDS011;61365;52.162;4.500;2023-03-01T05:03:44;57.80;;;26.58;;
72684;SDS011;61365;52.162;4.500;2023-03-01T05:06:13;46.97;;;23.80;;
72684;SDS011;61365;52.162;4.500;2023-03-01T05:08:42;65.05;;;27.60;;
72684;SDS011;61365;52.162;4.500;2023-03-01T05:11:09;86.50;;;28.00;;
72684;SDS011;61365;52.162;4.500;2023-03-01T05:13:37;50.38;;;25.75;;
72684;SDS011;61365;52.162;4.500;2023-03-01T05:16:06;64.70;;;28.10;;
72684;SDS011;61365;52.162;4.500;2023-03-01T05:18:37;59.28;;;25.98;;
72684;SDS011;61365;52.162;4.500;2023-03-01T05:21:06;61.67;;;28.80;;
72684;SDS011;61365;52.162;4.500;2023-03-01T05:23:37;59.90;;;26.83;;
72684;SDS011;61365;52.162;4.500;2023-03-01T05:26:05;183.55;;;33.42;;
72684;SDS011;61365;52.162;4.500;2023-03-01T05:28:32;104.03;;;27.25;;
72684;SDS011;61365;52.162;4.500;2023-03-01T05:30:59;51.70;;;25.02;;
72684;SDS011;61365;52.162;4.500;2023-03-01T05:33:26;68.53;;;25.67;;
72684;SDS011;61365;52.162;4.500;2023-03-01T05:35:53;81.65;;;27.08;;
72684;SDS011;61365;52.162;4.500;2023-03-01T05:38:20;95.28;;;28.98;;
72684;SDS011;61365;52.162;4.500;2023-03-01T05:40:48;54.13;;;25.10;;
72684;SDS011;61365;52.162;4.500;2023-03-01T05:43:15;54.80;;;25.35;;
72684;SDS011;61365;52.162;4.500;2023-03-01T05:45:43;67.60;;;26.05;;
72684;SDS011;61365;52.162;4.500;2023-03-01T05:48:11;54.35;;;24.63;;
72684;SDS011;61365;52.162;4.500;2023-03-01T05:50:40;52.50;;;24.83;;
72684;SDS011;61365;52.162;4.500;2023-03-01T05:53:11;52.10;;;24.55;;
72684;SDS011;61365;52.162;4.500;2023-03-01T05:55:41;45.63;;;23.02;;
72684;SDS011;61365;52.162;4.500;2023-03-01T05:58:13;42.88;;;22.27;;
72684;SDS011;61365;52.162;4.500;2023-03-01T06:00:44;50.42;;;24.23;;
72684;SDS011;61365;52.162;4.500;2023-03-01T06:03:14;45.22;;;23.27;;
72684;SDS011;61365;52.162;4.500;2023-03-01T06:05:43;50.78;;;26.10;;
72684;SDS011;61365;52.162;4.500;2023-03-01T06:08:12;50.20;;;26.45;;
72684;SDS011;61365;52.162;4.500;2023-03-01T06:10:39;44.30;;;24.65;;
72684;SDS011;61365;52.162;4.500;2023-03-01T06:13:06;46.92;;;24.95;;
72684;SDS011;61365;52.162;4.500;2023-03-01T06:15:32;44.97;;;24.25;;
72684;SDS011;61365;52.162;4.500;2023-03-01T06:17:59;48.15;;;24.65;;
72684;SDS011;61365;52.162;4.500;2023-03-01T06:20:26;48.88;;;25.15;;
72684;SDS011;61365;52.162;4.500;2023-03-01T06:22:54;41.95;;;24.67;;
72684;SDS011;61365;52.162;4.500;2023-03-01T06:25:22;42.40;;;23.08;;
72684;SDS011;61365;52.162;4.500;2023-03-01T06:27:53;45.05;;;23.55;;
72684;SDS011;61365;52.162;4.500;2023-03-01T06:30:20;45.60;;;24.70;;
72684;SDS011;61365;52.162;4.500;2023-03-01T06:32:49;43.95;;;24.60;;
72684;SDS011;61365;52.162;4.500;2023-03-01T06:35:16;42.30;;;22.98;;
72684;SDS011;61365;52.162;4.500;2023-03-01T06:37:45;46.78;;;23.98;;
72684;SDS011;61365;52.162;4.500;2023-03-01T06:40:13;41.90;;;24.02;;
72684;SDS011;61365;52.162;4.500;2023-03-01T06:42:41;42.35;;;23.00;;
72684;SDS011;61365;52.162;4.500;2023-03-01T06:45:13;37.92;;;21.17;;
72684;SDS011;61365;52.162;4.500;2023-03-01T06:47:40;39.28;;;21.88;;
72684;SDS011;61365;52.162;4.500;2023-03-01T06:50:06;48.70;;;24.00;;
72684;SDS011;61365;52.162;4.500;2023-03-01T06:52:34;40.08;;;21.52;;
72684;SDS011;61365;52.162;4.500;2023-03-01T06:55:00;42.15;;;22.20;;
72684;SDS011;61365;52.162;4.500;2023-03-01T06:57:27;43.22;;;22.80;;
72684;SDS011;61365;52.162;4.500;2023-03-01T06:59:54;38.60;;;21.55;;
72684;SDS011;61365;52.162;4.500;2023-03-01T07:02:20;40.45;;;22.58;;
72684;SDS011;61365;52.162;4.500;2023-03-01T07:04:51;38.97;;;21.58;;
72684;SDS011;61365;52.162;4.500;2023-03-01T07:07:18;39.05;;;22.23;;
72684;SDS011;61365;52.162;4.500;2023-03-01T07:09:48;36.42;;;21.60;;
72684;SDS011;61365;52.162;4.500;2023-03-01T07:12:15;35.42;;;20.95;;
72684;SDS011;61365;52.162;4.500;2023-03-01T07:14:43;34.05;;;19.90;;
72684;SDS011;61365;52.162;4.500;2023-03-01T07:17:10;35.38;;;19.50;;
72684;SDS011;61365;52.162;4.500;2023-03-01T07:19:41;33.67;;;20.33;;
72684;SDS011;61365;52.162;4.500;2023-03-01T07:22:08;35.13;;;20.48;;
72684;SDS011;61365;52.162;4.500;2023-03-01T07:24:35;36.00;;;21.20;;
72684;SDS011;61365;52.162;4.500;2023-03-01T07:27:01;35.85;;;20.50;;
72684;SDS011;61365;52.162;4.500;2023-03-01T07:29:30;43.00;;;22.13;;
72684;SDS011;61365;52.162;4.500;2023-03-01T07:31:57;36.03;;;20.27;;
72684;SDS011;61365;52.162;4.500;2023-03-01T07:34:24;32.85;;;19.90;;
72684;SDS011;61365;52.162;4.500;2023-03-01T07:36:53;36.30;;;21.73;;
72684;SDS011;61365;52.162;4.500;2023-03-01T07:39:19;38.35;;;20.40;;
72684;SDS011;61365;52.162;4.500;2023-03-01T07:41:49;38.15;;;21.95;;
72684;SDS011;61365;52.162;4.500;2023-03-01T07:44:16;35.80;;;21.73;;
72684;SDS011;61365;52.162;4.500;2023-03-01T07:46:43;38.15;;;23.27;;
72684;SDS011;61365;52.162;4.500;2023-03-01T07:49:12;39.65;;;23.30;;
72684;SDS011;61365;52.162;4.500;2023-03-01T07:51:39;39.28;;;21.70;;
72684;SDS011;61365;52.162;4.500;2023-03-01T07:54:08;41.88;;;22.90;;
72684;SDS011;61365;52.162;4.500;2023-03-01T07:56:35;39.58;;;22.80;;
72684;SDS011;61365;52.162;4.500;2023-03-01T07:59:01;42.28;;;22.90;;
72684;SDS011;61365;52.162;4.500;2023-03-01T08:01:28;37.90;;;22.17;;
72684;SDS011;61365;52.162;4.500;2023-03-01T08:03:54;44.17;;;23.77;;
72684;SDS011;61365;52.162;4.500;2023-03-01T08:06:21;43.92;;;24.55;;
72684;SDS011;61365;52.162;4.500;2023-03-01T08:08:47;40.53;;;22.42;;
72684;SDS011;61365;52.162;4.500;2023-03-01T08:11:14;46.40;;;25.50;;
72684;SDS011;61365;52.162;4.500;2023-03-01T08:13:44;40.38;;;23.98;;
72684;SDS011;61365;52.162;4.500;2023-03-01T08:16:18;42.22;;;24.38;;
72684;SDS011;61365;52.162;4.500;2023-03-01T08:19:06;36.70;;;22.83;;
72684;SDS011;61365;52.162;4.500;2023-03-01T08:21:39;40.67;;;24.80;;
72684;SDS011;61365;52.162;4.500;2023-03-01T08:24:14;54.10;;;28.48;;
72684;SDS011;61365;52.162;4.500;2023-03-01T08:26:41;47.75;;;28.50;;
72684;SDS011;61365;52.162;4.500;2023-03-01T08:29:08;53.75;;;30.80;;
72684;SDS011;61365;52.162;4.500;2023-03-01T08:31:36;56.45;;;31.00;;
72684;SDS011;61365;52.162;4.500;2023-03-01T08:34:11;51.45;;;30.38;;
72684;SDS011;61365;52.162;4.500;2023-03-01T08:36:45;56.38;;;28.83;;
72684;SDS011;61365;52.162;4.500;2023-03-01T08:39:14;47.67;;;29.02;;
72684;SDS011;61365;52.162;4.500;2023-03-01T08:41:46;45.95;;;25.40;;
72684;SDS011;61365;52.162;4.500;2023-03-01T08:44:26;45.63;;;26.67;;
72684;SDS011;61365;52.162;4.500;2023-03-01T08:47:00;45.20;;;23.95;;
72684;SDS011;61365;52.162;4.500;2023-03-01T08:49:28;42.45;;;25.08;;
72684;SDS011;61365;52.162;4.500;2023-03-01T08:51:58;38.78;;;23.55;;
72684;SDS011;61365;52.162;4.500;2023-03-01T08:54:35;42.17;;;23.80;;
72684;SDS011;61365;52.162;4.500;2023-03-01T08:57:02;41.28;;;22.48;;
72684;SDS011;61365;52.162;4.500;2023-03-01T08:59:29;37.10;;;21.95;;
72684;SDS011;61365;52.162;4.500;2023-03-01T09:01:56;33.55;;;21.30;;
72684;SDS011;61365;52.162;4.500;2023-03-01T09:04:22;37.78;;;22.00;;
72684;SDS011;61365;52.162;4.500;2023-03-01T09:06:49;32.47;;;20.17;;
72684;SDS011;61365;52.162;4.500;2023-03-01T09:09:16;34.38;;;20.55;;
72684;SDS011;61365;52.162;4.500;2023-03-01T09:11:44;34.75;;;20.73;;
72684;SDS011;61365;52.162;4.500;2023-03-01T09:14:16;31.50;;;19.13;;
72684;SDS011;61365;52.162;4.500;2023-03-01T09:16:42;30.25;;;19.77;;
72684;SDS011;61365;52.162;4.500;2023-03-01T09:19:09;34.88;;;19.67;;
72684;SDS011;61365;52.162;4.500;2023-03-01T09:21:36;33.47;;;20.48;;
72684;SDS011;61365;52.162;4.500;2023-03-01T09:24:03;36.63;;;21.05;;
72684;SDS011;61365;52.162;4.500;2023-03-01T09:26:30;29.27;;;19.98;;
72684;SDS011;61365;52.162;4.500;2023-03-01T09:28:57;34.35;;;21.38;;
72684;SDS011;61365;52.162;4.500;2023-03-01T09:31:26;34.88;;;21.15;;
72684;SDS011;61365;52.162;4.500;2023-03-01T09:33:52;30.67;;;20.48;;
72684;SDS011;61365;52.162;4.500;2023-03-01T09:36:21;35.50;;;22.05;;
72684;SDS011;61365;52.162;4.500;2023-03-01T09:38:53;33.30;;;20.73;;
72684;SDS011;61365;52.162;4.500;2023-03-01T09:41:26;35.28;;;21.05;;
72684;SDS011;61365;52.162;4.500;2023-03-01T09:44:23;34.40;;;21.38;;
72684;SDS011;61365;52.162;4.500;2023-03-01T09:47:09;34.47;;;21.00;;
72684;SDS011;61365;52.162;4.500;2023-03-01T09:49:58;29.70;;;18.75;;
72684;SDS011;61365;52.162;4.500;2023-03-01T10:10:05;37.05;;;21.58;;
72684;SDS011;61365;52.162;4.500;2023-03-01T10:12:37;29.52;;;19.25;;
72684;SDS011;61365;52.162;4.500;2023-03-01T10:17:48;36.13;;;22.63;;
72684;SDS011;61365;52.162;4.500;2023-03-01T10:20:24;37.97;;;21.98;;
72684;SDS011;61365;52.162;4.500;2023-03-01T10:23:04;37.78;;;23.05;;
72684;SDS011;61365;52.162;4.500;2023-03-01T10:28:20;34.05;;;21.67;;
72684;SDS011;61365;52.162;4.500;2023-03-01T10:31:38;39.30;;;22.60;;
72684;SDS011;61365;52.162;4.500;2023-03-01T10:34:13;35.90;;;20.95;;
72684;SDS011;61365;52.162;4.500;2023-03-01T10:36:52;32.55;;;20.88;;
72684;SDS011;61365;52.162;4.500;2023-03-01T10:39:26;40.53;;;22.13;;
72684;SDS011;61365;52.162;4.500;2023-03-01T10:44:37;35.60;;;19.35;;
72684;SDS011;61365;52.162;4.500;2023-03-01T10:47:13;42.97;;;24.85;;
72684;SDS011;61365;52.162;4.500;2023-03-01T10:49:58;44.45;;;23.85;;
72684;SDS011;61365;52.162;4.500;2023-03-01T10:52:35;38.85;;;20.70;;
72684;SDS011;61365;52.162;4.500;2023-03-01T10:57:41;36.33;;;21.40;;
72684;SDS011;61365;52.162;4.500;2023-03-01T11:06:19;35.05;;;19.73;;
72684;SDS011;61365;52.162;4.500;2023-03-01T11:08:48;32.35;;;18.40;;
72684;SDS011;61365;52.162;4.500;2023-03-01T11:16:27;33.05;;;20.13;;
72684;SDS011;61365;52.162;4.500;2023-03-01T11:19:14;32.15;;;19.45;;
72684;SDS011;61365;52.162;4.500;2023-03-01T11:30:13;32.53;;;18.75;;
72684;SDS011;61365;52.162;4.500;2023-03-01T11:35:37;42.80;;;19.23;;
72684;SDS011;61365;52.162;4.500;2023-03-01T11:38:18;27.80;;;15.85;;
72684;SDS011;61365;52.162;4.500;2023-03-01T11:40:52;23.63;;;13.32;;
72684;SDS011;61365;52.162;4.500;2023-03-01T11:43:33;27.02;;;14.45;;
72684;SDS011;61365;52.162;4.500;2023-03-01T12:01:24;14.43;;;7.43;;
72684;SDS011;61365;52.162;4.500;2023-03-01T12:07:31;13.70;;;7.50;;
72684;SDS011;61365;52.162;4.500;2023-03-01T12:25:30;17.23;;;10.03;;
72684;SDS011;61365;52.162;4.500;2023-03-01T12:49:34;16.83;;;9.80;;
72684;SDS011;61365;52.162;4.500;2023-03-01T12:52:14;19.25;;;10.40;;
72684;SDS011;61365;52.162;4.500;2023-03-01T12:54:51;20.15;;;11.27;;
72684;SDS011;61365;52.162;4.500;2023-03-01T13:00:40;18.90;;;10.48;;
72684;SDS011;61365;52.162;4.500;2023-03-01T13:06:29;18.00;;;9.73;;
72684;SDS011;61365;52.162;4.500;2023-03-01T13:12:03;21.65;;;10.18;;
72684;SDS011;61365;52.162;4.500;2023-03-01T13:14:50;20.80;;;10.80;;
72684;SDS011;61365;52.162;4.500;2023-03-01T13:17:29;21.67;;;10.90;;
72684;SDS011;61365;52.162;4.500;2023-03-01T13:20:12;19.58;;;10.63;;
72684;SDS011;61365;52.162;4.500;2023-03-01T13:22:42;21.60;;;10.55;;
72684;SDS011;61365;52.162;4.500;2023-03-01T13:25:27;18.63;;;9.10;;
72684;SDS011;61365;52.162;4.500;2023-03-01T13:28:09;19.88;;;10.30;;
72684;SDS011;61365;52.162;4.500;2023-03-01T13:31:08;18.10;;;10.48;;
72684;SDS011;61365;52.162;4.500;2023-03-01T13:33:43;16.88;;;9.43;;
72684;SDS011;61365;52.162;4.500;2023-03-01T13:49:40;16.73;;;9.18;;
72684;SDS011;61365;52.162;4.500;2023-03-01T13:55:05;15.30;;;8.70;;
72684;SDS011;61365;52.162;4.500;2023-03-01T13:57:46;17.08;;;9.13;;
72684;SDS011;61365;52.162;4.500;2023-03-01T14:00:40;20.25;;;9.07;;
72684;SDS011;61365;52.162;4.500;2023-03-01T14:03:14;15.90;;;8.95;;
72684;SDS011;61365;52.162;4.500;2023-03-01T14:06:07;16.52;;;8.68;;
72684;SDS011;61365;52.162;4.500;2023-03-01T14:08:46;17.10;;;9.52;;
72684;SDS011;61365;52.162;4.500;2023-03-01T14:14:37;16.33;;;8.80;;
72684;SDS011;61365;52.162;4.500;2023-03-01T14:20:09;15.52;;;8.25;;
72684;SDS011;61365;52.162;4.500;2023-03-01T14:22:54;15.65;;;8.32;;
72684;SDS011;61365;52.162;4.500;2023-03-01T14:25:26;17.42;;;7.93;;
72684;SDS011;61365;52.162;4.500;2023-03-01T14:27:59;15.63;;;7.77;;
72684;SDS011;61365;52.162;4.500;2023-03-01T14:30:38;12.93;;;7.22;;
72684;SDS011;61365;52.162;4.500;2023-03-01T14:33:43;23.60;;;7.95;;
72684;SDS011;61365;52.162;4.500;2023-03-01T14:36:04;13.18;;;7.05;;
72684;SDS011;61365;52.162;4.500;2023-03-01T14:38:36;16.30;;;8.43;;
72684;SDS011;61365;52.162;4.500;2023-03-01T14:41:10;15.57;;;7.80;;
72684;SDS011;61365;52.162;4.500;2023-03-01T14:44:03;17.70;;;8.43;;
72684;SDS011;61365;52.162;4.500;2023-03-01T14:46:40;14.63;;;7.90;;
72684;SDS011;61365;52.162;4.500;2023-03-01T14:49:11;13.25;;;7.82;;
72684;SDS011;61365;52.162;4.500;2023-03-01T14:52:03;13.63;;;7.88;;
72684;SDS011;61365;52.162;4.500;2023-03-01T14:57:17;14.18;;;8.07;;
72684;SDS011;61365;52.162;4.500;2023-03-01T14:59:51;13.23;;;7.85;;
72684;SDS011;61365;52.162;4.500;2023-03-01T15:02:30;14.10;;;7.43;;
72684;SDS011;61365;52.162;4.500;2023-03-01T15:04:59;15.65;;;8.27;;
72684;SDS011;61365;52.162;4.500;2023-03-01T15:07:31;15.63;;;7.97;;
72684;SDS011;61365;52.162;4.500;2023-03-01T15:10:05;14.57;;;8.02;;
72684;SDS011;61365;52.162;4.500;2023-03-01T15:18:57;15.70;;;7.03;;
72684;SDS011;61365;52.162;4.500;2023-03-01T15:21:36;13.40;;;7.10;;
72684;SDS011;61365;52.162;4.500;2023-03-01T15:26:55;14.70;;;7.18;;
72684;SDS011;61365;52.162;4.500;2023-03-01T15:29:32;12.05;;;6.10;;
72684;SDS011;61365;52.162;4.500;2023-03-01T15:32:20;11.73;;;6.20;;
72684;SDS011;61365;52.162;4.500;2023-03-01T15:38:30;12.65;;;6.32;;
72684;SDS011;61365;52.162;4.500;2023-03-01T15:41:06;13.40;;;6.60;;
72684;SDS011;61365;52.162;4.500;2023-03-01T15:43:59;13.70;;;6.13;;
72684;SDS011;61365;52.162;4.500;2023-03-01T15:46:47;12.35;;;6.53;;
72684;SDS011;61365;52.162;4.500;2023-03-01T15:49:57;13.13;;;6.90;;
72684;SDS011;61365;52.162;4.500;2023-03-01T15:52:29;11.63;;;6.25;;
72684;SDS011;61365;52.162;4.500;2023-03-01T15:55:05;12.40;;;6.55;;
72684;SDS011;61365;52.162;4.500;2023-03-01T15:57:45;13.60;;;7.95;;
72684;SDS011;61365;52.162;4.500;2023-03-01T16:00:12;16.17;;;7.70;;
72684;SDS011;61365;52.162;4.500;2023-03-01T16:02:41;13.25;;;7.38;;
72684;SDS011;61365;52.162;4.500;2023-03-01T16:05:20;25.02;;;7.07;;
72684;SDS011;61365;52.162;4.500;2023-03-01T16:07:56;14.52;;;7.32;;
72684;SDS011;61365;52.162;4.500;2023-03-01T16:10:22;11.57;;;6.90;;
72684;SDS011;61365;52.162;4.500;2023-03-01T16:12:50;12.70;;;6.95;;
72684;SDS011;61365;52.162;4.500;2023-03-01T16:15:20;12.20;;;6.55;;
72684;SDS011;61365;52.162;4.500;2023-03-01T16:17:50;12.13;;;6.28;;
72684;SDS011;61365;52.162;4.500;2023-03-01T16:20:18;12.30;;;6.95;;
72684;SDS011;61365;52.162;4.500;2023-03-01T16:22:45;19.13;;;7.05;;
72684;SDS011;61365;52.162;4.500;2023-03-01T16:25:16;16.33;;;7.15;;
72684;SDS011;61365;52.162;4.500;2023-03-01T16:27:46;12.52;;;6.88;;
72684;SDS011;61365;52.162;4.500;2023-03-01T16:30:16;11.02;;;5.97;;
72684;SDS011;61365;52.162;4.500;2023-03-01T16:32:46;11.02;;;6.15;;
72684;SDS011;61365;52.162;4.500;2023-03-01T16:35:17;10.07;;;6.18;;
72684;SDS011;61365;52.162;4.500;2023-03-01T16:37:46;10.77;;;5.97;;
72684;SDS011;61365;52.162;4.500;2023-03-01T16:40:21;10.63;;;6.22;;
72684;SDS011;61365;52.162;4.500;2023-03-01T16:42:51;13.60;;;5.90;;
72684;SDS011;61365;52.162;4.500;2023-03-01T16:45:19;9.73;;;5.43;;
72684;SDS011;61365;52.162;4.500;2023-03-01T16:47:45;12.10;;;6.60;;
72684;SDS011;61365;52.162;4.500;2023-03-01T16:50:12;10.20;;;6.13;;
72684;SDS011;61365;52.162;4.500;2023-03-01T16:52:38;12.32;;;6.57;;
72684;SDS011;61365;52.162;4.500;2023-03-01T16:55:06;14.15;;;6.85;;
72684;SDS011;61365;52.162;4.500;2023-03-01T16:57:38;13.20;;;7.07;;
72684;SDS011;61365;52.162;4.500;2023-03-01T17:00:05;13.07;;;6.25;;
72684;SDS011;61365;52.162;4.500;2023-03-01T17:02:38;11.88;;;6.38;;
72684;SDS011;61365;52.162;4.500;2023-03-01T17:05:07;10.30;;;6.15;;
72684;SDS011;61365;52.162;4.500;2023-03-01T17:07:36;11.55;;;6.35;;
72684;SDS011;61365;52.162;4.500;2023-03-01T17:10:04;11.75;;;6.18;;
72684;SDS011;61365;52.162;4.500;2023-03-01T17:12:34;14.63;;;6.57;;
72684;SDS011;61365;52.162;4.500;2023-03-01T17:15:01;13.57;;;6.90;;
72684;SDS011;61365;52.162;4.500;2023-03-01T17:17:35;15.40;;;6.35;;
72684;SDS011;61365;52.162;4.500;2023-03-01T17:20:02;14.05;;;7.55;;
72684;SDS011;61365;52.162;4.500;2023-03-01T17:22:29;13.02;;;7.15;;
72684;SDS011;61365;52.162;4.500;2023-03-01T17:24:55;13.73;;;7.60;;
72684;SDS011;61365;52.162;4.500;2023-03-01T17:27:22;14.13;;;6.80;;
72684;SDS011;61365;52.162;4.500;2023-03-01T17:29:48;13.43;;;7.55;;
72684;SDS011;61365;52.162;4.500;2023-03-01T17:32:15;15.98;;;7.07;;
72684;SDS011;61365;52.162;4.500;2023-03-01T17:34:41;13.85;;;7.18;;
72684;SDS011;61365;52.162;4.500;2023-03-01T17:37:08;16.70;;;7.70;;
72684;SDS011;61365;52.162;4.500;2023-03-01T17:39:34;13.77;;;6.57;;
72684;SDS011;61365;52.162;4.500;2023-03-01T17:42:01;12.20;;;6.63;;